sensor_id;sensor_type;location;lat;lon;timestamp;P1;durP1;ratioP1;P2;durP2;ratioP2
60867;SDS011;46702;48.370;10.794;2022-11-20T00:00:54;4.45;;;2.90;;
60867;SDS011;46702;48.370;10.794;2022-11-20T00:03:20;5.57;;;2.90;;
60867;SDS011;46702;48.370;10.794;2022-11-20T00:05:46;4.00;;;2.65;;
60867;SDS011;46702;48.370;10.794;2022-11-20T00:08:12;4.03;;;2.80;;
60867;SDS011;46702;48.370;10.794;2022-11-20T00:10:38;3.65;;;2.90;;
60867;SDS011;46702;48.370;10.794;2022-11-20T00:13:05;5.07;;;3.17;;
60867;SDS011;46702;48.370;10.794;2022-11-20T00:15:31;3.35;;;2.20;;
60867;SDS011;46702;48.370;10.794;2022-11-20T00:17:56;1.58;;;1.48;;
60867;SDS011;46702;48.370;10.794;2022-11-20T00:20:22;2.25;;;2.05;;
60867;SDS011;46702;48.370;10.794;2022-11-20T00:22:49;4.85;;;3.03;;
60867;SDS011;46702;48.370;10.794;2022-11-20T00:25:14;3.25;;;2.58;;
60867;SDS011;46702;48.370;10.794;2022-11-20T00:27:40;2.38;;;2.15;;
60867;SDS011;46702;48.370;10.794;2022-11-20T00:30:06;4.72;;;3.20;;
60867;SDS011;46702;48.370;10.794;2022-11-20T00:32:32;4.35;;;2.90;;
60867;SDS011;46702;48.370;10.794;2022-11-20T00:34:58;4.15;;;2.60;;
60867;SDS011;46702;48.370;10.794;2022-11-20T00:37:23;4.40;;;2.95;;
60867;SDS011;46702;48.370;10.794;2022-11-20T00:39:49;7.32;;;2.90;;
60867;SDS011;46702;48.370;10.794;2022-11-20T00:42:14;4.10;;;3.28;;
60867;SDS011;46702;48.370;10.794;2022-11-20T00:44:40;3.75;;;2.20;;
60867;SDS011;46702;48.370;10.794;2022-11-20T00:47:06;4.13;;;2.80;;
60867;SDS011;46702;48.370;10.794;2022-11-20T00:49:31;3.65;;;2.70;;
60867;SDS011;46702;48.370;10.794;2022-11-20T00:51:57;3.72;;;2.88;;
60867;SDS011;46702;48.370;10.794;2022-11-20T00:54:22;4.57;;;3.10;;
60867;SDS011;46702;48.370;10.794;2022-11-20T00:56:48;2.80;;;2.33;;
60867;SDS011;46702;48.370;10.794;2022-11-20T00:59:13;3.42;;;2.60;;
60867;SDS011;46702;48.370;10.794;2022-11-20T01:01:39;2.50;;;2.15;;
60867;SDS011;46702;48.370;10.794;2022-11-20T01:04:05;6.05;;;2.83;;
60867;SDS011;46702;48.370;10.794;2022-11-20T01:06:34;4.55;;;2.83;;
60867;SDS011;46702;48.370;10.794;2022-11-20T01:09:06;3.05;;;2.58;;
60867;SDS011;46702;48.370;10.794;2022-11-20T01:11:36;4.50;;;3.28;;
60867;SDS011;46702;48.370;10.794;2022-11-20T01:14:11;4.32;;;2.72;;
60867;SDS011;46702;48.370;10.794;2022-11-20T01:16:39;3.67;;;3.03;;
60867;SDS011;46702;48.370;10.794;2022-11-20T01:21:36;2.65;;;2.45;;
60867;SDS011;46702;48.370;10.794;2022-11-20T01:24:04;3.45;;;2.60;;
60867;SDS011;46702;48.370;10.794;2022-11-20T01:26:33;3.55;;;2.70;;
60867;SDS011;46702;48.370;10.794;2022-11-20T01:29:00;6.80;;;3.25;;
60867;SDS011;46702;48.370;10.794;2022-11-20T01:31:32;4.80;;;2.70;;
60867;SDS011;46702;48.370;10.794;2022-11-20T01:34:03;4.35;;;3.22;;
60867;SDS011;46702;48.370;10.794;2022-11-20T01:36:30;4.82;;;2.90;;
60867;SDS011;46702;48.370;10.794;2022-11-20T01:38:59;4.47;;;3.35;;
60867;SDS011;46702;48.370;10.794;2022-11-20T01:41:27;3.58;;;2.70;;
60867;SDS011;46702;48.370;10.794;2022-11-20T01:44:14;4.82;;;3.17;;
60867;SDS011;46702;48.370;10.794;2022-11-20T01:47:03;4.07;;;2.83;;
60867;SDS011;46702;48.370;10.794;2022-11-20T01:49:34;3.05;;;2.53;;
60867;SDS011;46702;48.370;10.794;2022-11-20T01:52:12;5.70;;;3.10;;
60867;SDS011;46702;48.370;10.794;2022-11-20T01:54:47;1.52;;;1.42;;
60867;SDS011;46702;48.370;10.794;2022-11-20T01:57:16;3.72;;;2.58;;
60867;SDS011;46702;48.370;10.794;2022-11-20T01:59:45;2.78;;;2.20;;
60867;SDS011;46702;48.370;10.794;2022-11-20T02:02:16;3.42;;;2.70;;
60867;SDS011;46702;48.370;10.794;2022-11-20T02:04:42;4.15;;;3.08;;
60867;SDS011;46702;48.370;10.794;2022-11-20T02:07:09;2.20;;;1.95;;
60867;SDS011;46702;48.370;10.794;2022-11-20T02:09:35;3.30;;;2.03;;
60867;SDS011;46702;48.370;10.794;2022-11-20T02:12:01;6.07;;;2.90;;
60867;SDS011;46702;48.370;10.794;2022-11-20T02:14:27;3.28;;;2.63;;
60867;SDS011;46702;48.370;10.794;2022-11-20T02:16:53;2.90;;;2.20;;
60867;SDS011;46702;48.370;10.794;2022-11-20T02:19:27;3.13;;;2.17;;
60867;SDS011;46702;48.370;10.794;2022-11-20T02:24:49;2.50;;;2.10;;
60867;SDS011;46702;48.370;10.794;2022-11-20T02:27:16;3.75;;;3.42;;
60867;SDS011;46702;48.370;10.794;2022-11-20T02:29:46;2.83;;;2.63;;
60867;SDS011;46702;48.370;10.794;2022-11-20T02:32:25;4.57;;;2.85;;
60867;SDS011;46702;48.370;10.794;2022-11-20T02:34:52;2.88;;;2.13;;
60867;SDS011;46702;48.370;10.794;2022-11-20T02:37:18;5.03;;;3.65;;
60867;SDS011;46702;48.370;10.794;2022-11-20T02:39:49;4.20;;;3.17;;
60867;SDS011;46702;48.370;10.794;2022-11-20T02:42:17;2.45;;;2.25;;
60867;SDS011;46702;48.370;10.794;2022-11-20T02:44:43;4.38;;;2.90;;
60867;SDS011;46702;48.370;10.794;2022-11-20T02:47:08;3.72;;;2.72;;
60867;SDS011;46702;48.370;10.794;2022-11-20T02:49:34;4.57;;;2.95;;
60867;SDS011;46702;48.370;10.794;2022-11-20T02:52:03;4.38;;;3.28;;
60867;SDS011;46702;48.370;10.794;2022-11-20T02:54:28;3.65;;;2.63;;
60867;SDS011;46702;48.370;10.794;2022-11-20T02:56:54;2.88;;;2.45;;
60867;SDS011;46702;48.370;10.794;2022-11-20T02:59:20;5.15;;;2.80;;
60867;SDS011;46702;48.370;10.794;2022-11-20T03:01:45;5.32;;;3.25;;
60867;SDS011;46702;48.370;10.794;2022-11-20T03:04:11;3.38;;;3.00;;
60867;SDS011;46702;48.370;10.794;2022-11-20T03:06:37;6.00;;;3.65;;
60867;SDS011;46702;48.370;10.794;2022-11-20T03:09:02;1.80;;;1.70;;
60867;SDS011;46702;48.370;10.794;2022-11-20T03:11:28;3.58;;;2.88;;
60867;SDS011;46702;48.370;10.794;2022-11-20T03:13:54;5.85;;;3.28;;
60867;SDS011;46702;48.370;10.794;2022-11-20T03:16:20;3.35;;;2.65;;
60867;SDS011;46702;48.370;10.794;2022-11-20T03:18:47;3.03;;;2.27;;
60867;SDS011;46702;48.370;10.794;2022-11-20T03:21:13;3.83;;;3.30;;
60867;SDS011;46702;48.370;10.794;2022-11-20T03:23:40;2.55;;;2.13;;
60867;SDS011;46702;48.370;10.794;2022-11-20T03:28:34;4.90;;;2.72;;
60867;SDS011;46702;48.370;10.794;2022-11-20T03:31:07;2.45;;;2.25;;
60867;SDS011;46702;48.370;10.794;2022-11-20T03:33:37;10.35;;;4.68;;
60867;SDS011;46702;48.370;10.794;2022-11-20T03:36:05;6.45;;;4.03;;
60867;SDS011;46702;48.370;10.794;2022-11-20T03:40:59;1.20;;;1.20;;
60867;SDS011;46702;48.370;10.794;2022-11-20T03:43:26;4.22;;;3.33;;
60867;SDS011;46702;48.370;10.794;2022-11-20T03:45:52;3.67;;;3.03;;
60867;SDS011;46702;48.370;10.794;2022-11-20T03:48:18;7.63;;;4.70;;
60867;SDS011;46702;48.370;10.794;2022-11-20T03:50:43;4.00;;;2.92;;
60867;SDS011;46702;48.370;10.794;2022-11-20T03:53:09;4.65;;;2.72;;
60867;SDS011;46702;48.370;10.794;2022-11-20T03:55:34;3.20;;;2.65;;
60867;SDS011;46702;48.370;10.794;2022-11-20T03:58:00;3.17;;;2.45;;
60867;SDS011;46702;48.370;10.794;2022-11-20T04:00:25;2.00;;;1.80;;
60867;SDS011;46702;48.370;10.794;2022-11-20T04:02:51;1.00;;;1.00;;
60867;SDS011;46702;48.370;10.794;2022-11-20T04:05:16;2.78;;;2.08;;
60867;SDS011;46702;48.370;10.794;2022-11-20T04:07:42;2.63;;;2.45;;
60867;SDS011;46702;48.370;10.794;2022-11-20T04:10:07;2.10;;;1.95;;
60867;SDS011;46702;48.370;10.794;2022-11-20T04:12:33;2.75;;;2.50;;
60867;SDS011;46702;48.370;10.794;2022-11-20T04:14:59;3.90;;;2.33;;
60867;SDS011;46702;48.370;10.794;2022-11-20T04:17:24;2.47;;;2.28;;
60867;SDS011;46702;48.370;10.794;2022-11-20T04:19:50;2.78;;;2.42;;
60867;SDS011;46702;48.370;10.794;2022-11-20T04:22:15;2.80;;;2.50;;
60867;SDS011;46702;48.370;10.794;2022-11-20T04:24:41;2.58;;;2.20;;
60867;SDS011;46702;48.370;10.794;2022-11-20T04:27:07;2.33;;;2.10;;
60867;SDS011;46702;48.370;10.794;2022-11-20T04:29:32;3.70;;;2.65;;
60867;SDS011;46702;48.370;10.794;2022-11-20T04:31:58;1.08;;;1.08;;
60867;SDS011;46702;48.370;10.794;2022-11-20T04:34:23;1.95;;;1.85;;
60867;SDS011;46702;48.370;10.794;2022-11-20T04:36:49;1.92;;;1.63;;
60867;SDS011;46702;48.370;10.794;2022-11-20T04:39:14;5.55;;;2.83;;
60867;SDS011;46702;48.370;10.794;2022-11-20T04:41:40;5.18;;;3.20;;
60867;SDS011;46702;48.370;10.794;2022-11-20T04:44:06;3.38;;;2.22;;
60867;SDS011;46702;48.370;10.794;2022-11-20T04:46:35;4.55;;;3.10;;
60867;SDS011;46702;48.370;10.794;2022-11-20T04:49:03;2.83;;;2.53;;
60867;SDS011;46702;48.370;10.794;2022-11-20T04:51:29;4.75;;;3.97;;
60867;SDS011;46702;48.370;10.794;2022-11-20T04:53:55;4.00;;;2.63;;
60867;SDS011;46702;48.370;10.794;2022-11-20T04:56:21;2.45;;;2.08;;
60867;SDS011;46702;48.370;10.794;2022-11-20T04:58:46;3.13;;;2.38;;
60867;SDS011;46702;48.370;10.794;2022-11-20T05:01:16;2.17;;;1.95;;
60867;SDS011;46702;48.370;10.794;2022-11-20T05:03:44;4.68;;;2.80;;
60867;SDS011;46702;48.370;10.794;2022-11-20T05:06:13;4.47;;;3.10;;
60867;SDS011;46702;48.370;10.794;2022-11-20T05:08:40;5.93;;;3.08;;
60867;SDS011;46702;48.370;10.794;2022-11-20T05:11:08;3.47;;;2.55;;
60867;SDS011;46702;48.370;10.794;2022-11-20T05:13:54;2.55;;;2.35;;
60867;SDS011;46702;48.370;10.794;2022-11-20T05:16:21;3.38;;;2.88;;
60867;SDS011;46702;48.370;10.794;2022-11-20T05:18:49;5.07;;;2.53;;
60867;SDS011;46702;48.370;10.794;2022-11-20T05:21:16;3.88;;;2.55;;
60867;SDS011;46702;48.370;10.794;2022-11-20T05:23:43;3.42;;;2.97;;
60867;SDS011;46702;48.370;10.794;2022-11-20T05:26:14;3.97;;;2.40;;
60867;SDS011;46702;48.370;10.794;2022-11-20T05:28:41;5.18;;;2.92;;
60867;SDS011;46702;48.370;10.794;2022-11-20T05:31:11;3.80;;;2.75;;
60867;SDS011;46702;48.370;10.794;2022-11-20T05:33:42;2.85;;;2.55;;
60867;SDS011;46702;48.370;10.794;2022-11-20T05:36:09;2.92;;;2.35;;
60867;SDS011;46702;48.370;10.794;2022-11-20T05:38:36;3.03;;;2.63;;
60867;SDS011;46702;48.370;10.794;2022-11-20T05:41:05;2.67;;;1.95;;
60867;SDS011;46702;48.370;10.794;2022-11-20T05:43:36;2.25;;;2.05;;
60867;SDS011;46702;48.370;10.794;2022-11-20T05:46:03;3.45;;;2.60;;
60867;SDS011;46702;48.370;10.794;2022-11-20T05:48:30;2.42;;;2.03;;
60867;SDS011;46702;48.370;10.794;2022-11-20T05:50:59;4.63;;;2.25;;
60867;SDS011;46702;48.370;10.794;2022-11-20T05:53:25;4.38;;;2.38;;
60867;SDS011;46702;48.370;10.794;2022-11-20T05:55:58;3.85;;;1.90;;
60867;SDS011;46702;48.370;10.794;2022-11-20T05:58:29;2.20;;;2.00;;
60867;SDS011;46702;48.370;10.794;2022-11-20T06:01:02;3.08;;;2.38;;
60867;SDS011;46702;48.370;10.794;2022-11-20T06:03:35;2.50;;;2.15;;
60867;SDS011;46702;48.370;10.794;2022-11-20T06:06:02;3.42;;;2.47;;
60867;SDS011;46702;48.370;10.794;2022-11-20T06:08:29;2.45;;;2.25;;
60867;SDS011;46702;48.370;10.794;2022-11-20T06:10:55;2.35;;;2.15;;
60867;SDS011;46702;48.370;10.794;2022-11-20T06:13:21;2.00;;;1.90;;
60867;SDS011;46702;48.370;10.794;2022-11-20T06:15:50;1.58;;;1.48;;
60867;SDS011;46702;48.370;10.794;2022-11-20T06:18:17;2.25;;;2.05;;
60867;SDS011;46702;48.370;10.794;2022-11-20T06:20:43;1.17;;;1.17;;
60867;SDS011;46702;48.370;10.794;2022-11-20T06:23:08;2.30;;;1.83;;
60867;SDS011;46702;48.370;10.794;2022-11-20T06:25:37;2.78;;;2.20;;
60867;SDS011;46702;48.370;10.794;2022-11-20T06:28:03;0.80;;;0.77;;
60867;SDS011;46702;48.370;10.794;2022-11-20T06:30:29;2.03;;;1.88;;
60867;SDS011;46702;48.370;10.794;2022-11-20T06:32:54;3.45;;;1.50;;
60867;SDS011;46702;48.370;10.794;2022-11-20T06:35:20;1.30;;;1.20;;
60867;SDS011;46702;48.370;10.794;2022-11-20T06:37:46;1.27;;;1.20;;
60867;SDS011;46702;48.370;10.794;2022-11-20T06:40:11;0.90;;;0.90;;
60867;SDS011;46702;48.370;10.794;2022-11-20T06:42:37;2.83;;;2.63;;
60867;SDS011;46702;48.370;10.794;2022-11-20T06:45:03;2.65;;;2.40;;
60867;SDS011;46702;48.370;10.794;2022-11-20T06:47:29;1.73;;;1.63;;
60867;SDS011;46702;48.370;10.794;2022-11-20T06:49:54;2.60;;;2.35;;
60867;SDS011;46702;48.370;10.794;2022-11-20T06:52:20;3.17;;;2.28;;
60867;SDS011;46702;48.370;10.794;2022-11-20T06:54:46;2.45;;;1.98;;
60867;SDS011;46702;48.370;10.794;2022-11-20T06:57:11;1.88;;;1.63;;
60867;SDS011;46702;48.370;10.794;2022-11-20T06:59:37;3.55;;;2.42;;
60867;SDS011;46702;48.370;10.794;2022-11-20T07:02:02;2.75;;;2.25;;
60867;SDS011;46702;48.370;10.794;2022-11-20T07:04:28;1.52;;;1.48;;
60867;SDS011;46702;48.370;10.794;2022-11-20T07:06:54;2.15;;;2.03;;
60867;SDS011;46702;48.370;10.794;2022-11-20T07:09:19;3.20;;;2.90;;
60867;SDS011;46702;48.370;10.794;2022-11-20T07:11:45;2.60;;;2.38;;
60867;SDS011;46702;48.370;10.794;2022-11-20T07:14:10;2.65;;;2.42;;
60867;SDS011;46702;48.370;10.794;2022-11-20T07:16:36;2.80;;;2.55;;
60867;SDS011;46702;48.370;10.794;2022-11-20T07:19:01;3.42;;;2.38;;
60867;SDS011;46702;48.370;10.794;2022-11-20T07:21:27;1.75;;;1.60;;
60867;SDS011;46702;48.370;10.794;2022-11-20T07:23:53;3.45;;;2.33;;
60867;SDS011;46702;48.370;10.794;2022-11-20T07:26:18;3.63;;;2.50;;
60867;SDS011;46702;48.370;10.794;2022-11-20T07:28:44;3.63;;;2.45;;
60867;SDS011;46702;48.370;10.794;2022-11-20T07:31:10;2.85;;;2.20;;
60867;SDS011;46702;48.370;10.794;2022-11-20T07:33:37;1.27;;;1.27;;
60867;SDS011;46702;48.370;10.794;2022-11-20T07:36:03;1.02;;;1.02;;
60867;SDS011;46702;48.370;10.794;2022-11-20T07:38:29;2.42;;;2.22;;
60867;SDS011;46702;48.370;10.794;2022-11-20T07:40:56;1.42;;;1.35;;
60867;SDS011;46702;48.370;10.794;2022-11-20T07:43:23;2.03;;;1.80;;
60867;SDS011;46702;48.370;10.794;2022-11-20T07:45:50;1.65;;;1.50;;
60867;SDS011;46702;48.370;10.794;2022-11-20T07:48:15;1.67;;;1.55;;
60867;SDS011;46702;48.370;10.794;2022-11-20T07:50:41;1.65;;;1.48;;
60867;SDS011;46702;48.370;10.794;2022-11-20T07:53:07;2.30;;;2.05;;
60867;SDS011;46702;48.370;10.794;2022-11-20T07:55:32;1.65;;;1.45;;
60867;SDS011;46702;48.370;10.794;2022-11-20T07:57:58;2.33;;;1.45;;
60867;SDS011;46702;48.370;10.794;2022-11-20T08:00:24;1.48;;;1.38;;
60867;SDS011;46702;48.370;10.794;2022-11-20T08:02:51;1.60;;;1.50;;
60867;SDS011;46702;48.370;10.794;2022-11-20T08:05:17;2.42;;;2.10;;
60867;SDS011;46702;48.370;10.794;2022-11-20T08:07:43;4.15;;;2.80;;
60867;SDS011;46702;48.370;10.794;2022-11-20T08:10:10;1.40;;;1.30;;
60867;SDS011;46702;48.370;10.794;2022-11-20T08:12:47;2.50;;;2.30;;
60867;SDS011;46702;48.370;10.794;2022-11-20T08:15:36;2.20;;;1.90;;
60867;SDS011;46702;48.370;10.794;2022-11-20T08:18:04;2.45;;;2.25;;
60867;SDS011;46702;48.370;10.794;2022-11-20T08:20:32;2.25;;;2.00;;
60867;SDS011;46702;48.370;10.794;2022-11-20T08:23:01;1.80;;;1.70;;
60867;SDS011;46702;48.370;10.794;2022-11-20T08:25:28;1.90;;;1.80;;
60867;SDS011;46702;48.370;10.794;2022-11-20T08:27:58;1.98;;;1.38;;
60867;SDS011;46702;48.370;10.794;2022-11-20T08:30:25;2.50;;;2.13;;
60867;SDS011;46702;48.370;10.794;2022-11-20T08:32:50;2.80;;;2.17;;
60867;SDS011;46702;48.370;10.794;2022-11-20T08:35:16;1.50;;;1.40;;
60867;SDS011;46702;48.370;10.794;2022-11-20T08:37:41;2.92;;;2.72;;
60867;SDS011;46702;48.370;10.794;2022-11-20T08:42:36;1.00;;;1.00;;
60867;SDS011;46702;48.370;10.794;2022-11-20T08:45:02;2.72;;;2.35;;
60867;SDS011;46702;48.370;10.794;2022-11-20T08:47:28;2.72;;;2.05;;
60867;SDS011;46702;48.370;10.794;2022-11-20T08:49:54;5.15;;;2.22;;
60867;SDS011;46702;48.370;10.794;2022-11-20T08:52:19;1.77;;;1.67;;
60867;SDS011;46702;48.370;10.794;2022-11-20T08:54:45;2.03;;;1.80;;
60867;SDS011;46702;48.370;10.794;2022-11-20T08:57:11;1.83;;;1.73;;
60867;SDS011;46702;48.370;10.794;2022-11-20T08:59:37;2.28;;;1.60;;
60867;SDS011;46702;48.370;10.794;2022-11-20T09:02:02;2.63;;;2.40;;
60867;SDS011;46702;48.370;10.794;2022-11-20T09:04:28;4.68;;;2.30;;
60867;SDS011;46702;48.370;10.794;2022-11-20T09:06:53;3.13;;;1.23;;
60867;SDS011;46702;48.370;10.794;2022-11-20T09:09:19;5.20;;;2.47;;
60867;SDS011;46702;48.370;10.794;2022-11-20T09:11:45;1.90;;;1.80;;
60867;SDS011;46702;48.370;10.794;2022-11-20T09:14:10;2.15;;;1.98;;
60867;SDS011;46702;48.370;10.794;2022-11-20T09:16:36;3.85;;;3.38;;
60867;SDS011;46702;48.370;10.794;2022-11-20T09:19:01;2.85;;;1.17;;
60867;SDS011;46702;48.370;10.794;2022-11-20T09:21:27;1.85;;;1.75;;
60867;SDS011;46702;48.370;10.794;2022-11-20T09:23:52;3.17;;;1.63;;
60867;SDS011;46702;48.370;10.794;2022-11-20T09:26:18;1.58;;;1.48;;
60867;SDS011;46702;48.370;10.794;2022-11-20T09:28:44;2.30;;;2.15;;
60867;SDS011;46702;48.370;10.794;2022-11-20T09:31:23;4.95;;;2.03;;
60867;SDS011;46702;48.370;10.794;2022-11-20T09:33:50;2.30;;;1.75;;
60867;SDS011;46702;48.370;10.794;2022-11-20T09:36:16;2.03;;;1.88;;
60867;SDS011;46702;48.370;10.794;2022-11-20T09:38:43;2.28;;;1.90;;
60867;SDS011;46702;48.370;10.794;2022-11-20T09:41:17;3.00;;;2.70;;
60867;SDS011;46702;48.370;10.794;2022-11-20T09:43:58;1.95;;;1.52;;
60867;SDS011;46702;48.370;10.794;2022-11-20T09:55:10;1.92;;;1.83;;
60867;SDS011;46702;48.370;10.794;2022-11-20T09:57:38;2.03;;;1.83;;
60867;SDS011;46702;48.370;10.794;2022-11-20T10:00:09;2.15;;;1.83;;
60867;SDS011;46702;48.370;10.794;2022-11-20T10:10:45;2.47;;;1.60;;
60867;SDS011;46702;48.370;10.794;2022-11-20T10:15:57;1.85;;;1.75;;
60867;SDS011;46702;48.370;10.794;2022-11-20T10:21:11;1.77;;;1.67;;
60867;SDS011;46702;48.370;10.794;2022-11-20T10:23:44;1.70;;;1.55;;
60867;SDS011;46702;48.370;10.794;2022-11-20T10:29:21;1.40;;;1.30;;
60867;SDS011;46702;48.370;10.794;2022-11-20T10:32:03;2.10;;;1.58;;
60867;SDS011;46702;48.370;10.794;2022-11-20T10:34:57;1.50;;;1.40;;
60867;SDS011;46702;48.370;10.794;2022-11-20T10:37:29;1.48;;;1.38;;
60867;SDS011;46702;48.370;10.794;2022-11-20T10:42:43;1.65;;;1.55;;
60867;SDS011;46702;48.370;10.794;2022-11-20T10:48:23;1.35;;;1.25;;
60867;SDS011;46702;48.370;10.794;2022-11-20T10:51:02;1.70;;;1.50;;
60867;SDS011;46702;48.370;10.794;2022-11-20T11:01:47;1.98;;;0.95;;
60867;SDS011;46702;48.370;10.794;2022-11-20T11:04:55;1.67;;;1.42;;
60867;SDS011;46702;48.370;10.794;2022-11-20T11:09:48;1.13;;;1.08;;
60867;SDS011;46702;48.370;10.794;2022-11-20T11:12:17;0.95;;;0.90;;
60867;SDS011;46702;48.370;10.794;2022-11-20T11:14:50;2.80;;;1.30;;
60867;SDS011;46702;48.370;10.794;2022-11-20T11:17:20;1.00;;;1.00;;
60867;SDS011;46702;48.370;10.794;2022-11-20T11:19:58;1.45;;;1.35;;
60867;SDS011;46702;48.370;10.794;2022-11-20T11:22:26;0.88;;;0.88;;
60867;SDS011;46702;48.370;10.794;2022-11-20T11:24:55;0.93;;;0.93;;
60867;SDS011;46702;48.370;10.794;2022-11-20T11:27:21;1.25;;;1.15;;
60867;SDS011;46702;48.370;10.794;2022-11-20T11:29:50;1.08;;;1.08;;
60867;SDS011;46702;48.370;10.794;2022-11-20T11:32:41;1.35;;;1.05;;
60867;SDS011;46702;48.370;10.794;2022-11-20T11:35:17;0.60;;;0.60;;
60867;SDS011;46702;48.370;10.794;2022-11-20T11:37:46;1.52;;;1.42;;
60867;SDS011;46702;48.370;10.794;2022-11-20T11:40:13;0.83;;;0.83;;
60867;SDS011;46702;48.370;10.794;2022-11-20T11:42:44;1.00;;;1.00;;
60867;SDS011;46702;48.370;10.794;2022-11-20T11:45:16;1.45;;;1.27;;
60867;SDS011;46702;48.370;10.794;2022-11-20T11:47:48;1.45;;;1.35;;
60867;SDS011;46702;48.370;10.794;2022-11-20T11:50:21;0.95;;;0.95;;
60867;SDS011;46702;48.370;10.794;2022-11-20T11:55:26;0.75;;;0.75;;
60867;SDS011;46702;48.370;10.794;2022-11-20T12:00:51;0.60;;;0.60;;
60867;SDS011;46702;48.370;10.794;2022-11-20T12:03:28;0.93;;;0.93;;
60867;SDS011;46702;48.370;10.794;2022-11-20T12:06:09;1.35;;;1.25;;
60867;SDS011;46702;48.370;10.794;2022-11-20T12:08:43;1.23;;;1.20;;
60867;SDS011;46702;48.370;10.794;2022-11-20T12:16:49;1.20;;;1.20;;
60867;SDS011;46702;48.370;10.794;2022-11-20T12:19:25;1.30;;;1.23;;
60867;SDS011;46702;48.370;10.794;2022-11-20T12:25:14;0.68;;;0.68;;
60867;SDS011;46702;48.370;10.794;2022-11-20T12:34:18;2.20;;;1.55;;
60867;SDS011;46702;48.370;10.794;2022-11-20T12:36:50;1.02;;;1.02;;
60867;SDS011;46702;48.370;10.794;2022-11-20T12:39:48;2.25;;;1.45;;
60867;SDS011;46702;48.370;10.794;2022-11-20T12:53:36;1.67;;;1.58;;
60867;SDS011;46702;48.370;10.794;2022-11-20T12:59:46;1.50;;;1.40;;
60867;SDS011;46702;48.370;10.794;2022-11-20T13:02:05;1.00;;;1.00;;
60867;SDS011;46702;48.370;10.794;2022-11-20T13:07:28;2.50;;;1.50;;
60867;SDS011;46702;48.370;10.794;2022-11-20T13:09:59;1.75;;;1.30;;
60867;SDS011;46702;48.370;10.794;2022-11-20T13:15:02;1.45;;;1.35;;
60867;SDS011;46702;48.370;10.794;2022-11-20T13:20:25;1.27;;;1.17;;
60867;SDS011;46702;48.370;10.794;2022-11-20T13:22:52;1.38;;;1.27;;
60867;SDS011;46702;48.370;10.794;2022-11-20T13:25:24;1.45;;;1.33;;
60867;SDS011;46702;48.370;10.794;2022-11-20T13:27:54;1.38;;;1.25;;
60867;SDS011;46702;48.370;10.794;2022-11-20T13:30:24;1.45;;;1.35;;
60867;SDS011;46702;48.370;10.794;2022-11-20T13:32:55;1.60;;;1.50;;
60867;SDS011;46702;48.370;10.794;2022-11-20T13:38:10;1.00;;;1.00;;
60867;SDS011;46702;48.370;10.794;2022-11-20T13:40:52;1.60;;;1.50;;
60867;SDS011;46702;48.370;10.794;2022-11-20T13:43:46;1.80;;;1.40;;
60867;SDS011;46702;48.370;10.794;2022-11-20T13:46:13;1.38;;;1.38;;
60867;SDS011;46702;48.370;10.794;2022-11-20T13:51:17;1.38;;;1.27;;
60867;SDS011;46702;48.370;10.794;2022-11-20T14:02:01;1.55;;;1.17;;
60867;SDS011;46702;48.370;10.794;2022-11-20T14:04:31;1.63;;;1.52;;
60867;SDS011;46702;48.370;10.794;2022-11-20T14:07:00;1.40;;;1.30;;
60867;SDS011;46702;48.370;10.794;2022-11-20T14:09:30;1.00;;;1.00;;
60867;SDS011;46702;48.370;10.794;2022-11-20T14:11:57;1.45;;;1.40;;
60867;SDS011;46702;48.370;10.794;2022-11-20T14:14:24;2.13;;;1.50;;
60867;SDS011;46702;48.370;10.794;2022-11-20T14:16:52;0.67;;;0.67;;
60867;SDS011;46702;48.370;10.794;2022-11-20T14:21:54;1.38;;;1.10;;
60867;SDS011;46702;48.370;10.794;2022-11-20T14:24:32;1.08;;;1.02;;
60867;SDS011;46702;48.370;10.794;2022-11-20T14:26:58;1.05;;;1.05;;
60867;SDS011;46702;48.370;10.794;2022-11-20T14:29:27;1.48;;;1.38;;
60867;SDS011;46702;48.370;10.794;2022-11-20T14:31:58;0.95;;;0.95;;
60867;SDS011;46702;48.370;10.794;2022-11-20T14:34:25;1.75;;;1.55;;
60867;SDS011;46702;48.370;10.794;2022-11-20T14:39:22;2.13;;;1.70;;
60867;SDS011;46702;48.370;10.794;2022-11-20T14:41:54;2.92;;;2.25;;
60867;SDS011;46702;48.370;10.794;2022-11-20T14:44:21;0.68;;;0.68;;
60867;SDS011;46702;48.370;10.794;2022-11-20T14:46:52;1.70;;;1.30;;
60867;SDS011;46702;48.370;10.794;2022-11-20T14:49:19;1.42;;;1.30;;
60867;SDS011;46702;48.370;10.794;2022-11-20T14:51:45;1.10;;;1.10;;
60867;SDS011;46702;48.370;10.794;2022-11-20T14:56:40;1.73;;;1.40;;
60867;SDS011;46702;48.370;10.794;2022-11-20T14:59:06;1.45;;;1.35;;
60867;SDS011;46702;48.370;10.794;2022-11-20T15:01:40;1.77;;;1.55;;
60867;SDS011;46702;48.370;10.794;2022-11-20T15:04:25;2.35;;;1.08;;
60867;SDS011;46702;48.370;10.794;2022-11-20T15:06:52;0.68;;;0.68;;
60867;SDS011;46702;48.370;10.794;2022-11-20T15:09:22;2.70;;;1.33;;
60867;SDS011;46702;48.370;10.794;2022-11-20T15:11:55;1.23;;;1.13;;
60867;SDS011;46702;48.370;10.794;2022-11-20T15:14:23;0.95;;;0.95;;
60867;SDS011;46702;48.370;10.794;2022-11-20T15:16:51;1.27;;;1.20;;
60867;SDS011;46702;48.370;10.794;2022-11-20T15:19:19;0.95;;;0.95;;
60867;SDS011;46702;48.370;10.794;2022-11-20T15:21:48;0.90;;;0.90;;
60867;SDS011;46702;48.370;10.794;2022-11-20T15:24:15;1.00;;;0.90;;
60867;SDS011;46702;48.370;10.794;2022-11-20T15:26:40;0.70;;;0.70;;
60867;SDS011;46702;48.370;10.794;2022-11-20T15:29:10;1.20;;;0.93;;
60867;SDS011;46702;48.370;10.794;2022-11-20T15:31:37;1.27;;;1.17;;
60867;SDS011;46702;48.370;10.794;2022-11-20T15:34:12;3.08;;;1.45;;
60867;SDS011;46702;48.370;10.794;2022-11-20T15:36:48;0.88;;;0.88;;
60867;SDS011;46702;48.370;10.794;2022-11-20T15:39:14;2.60;;;1.27;;
60867;SDS011;46702;48.370;10.794;2022-11-20T15:41:45;1.15;;;1.02;;
60867;SDS011;46702;48.370;10.794;2022-11-20T15:44:11;1.25;;;1.10;;
60867;SDS011;46702;48.370;10.794;2022-11-20T15:46:38;1.58;;;1.48;;
60867;SDS011;46702;48.370;10.794;2022-11-20T15:49:11;1.80;;;1.50;;
60867;SDS011;46702;48.370;10.794;2022-11-20T15:51:38;1.52;;;1.42;;
60867;SDS011;46702;48.370;10.794;2022-11-20T15:54:14;1.70;;;1.50;;
60867;SDS011;46702;48.370;10.794;2022-11-20T15:56:48;1.50;;;1.40;;
60867;SDS011;46702;48.370;10.794;2022-11-20T15:59:17;1.50;;;1.40;;
60867;SDS011;46702;48.370;10.794;2022-11-20T16:01:43;1.23;;;1.10;;
60867;SDS011;46702;48.370;10.794;2022-11-20T16:04:13;1.98;;;1.30;;
60867;SDS011;46702;48.370;10.794;2022-11-20T16:06:45;3.88;;;2.20;;
60867;SDS011;46702;48.370;10.794;2022-11-20T16:09:20;3.75;;;1.95;;
60867;SDS011;46702;48.370;10.794;2022-11-20T16:11:59;2.15;;;1.83;;
60867;SDS011;46702;48.370;10.794;2022-11-20T16:14:26;0.82;;;0.82;;
60867;SDS011;46702;48.370;10.794;2022-11-20T16:17:11;0.88;;;0.88;;
60867;SDS011;46702;48.370;10.794;2022-11-20T16:20:09;1.50;;;1.40;;
60867;SDS011;46702;48.370;10.794;2022-11-20T16:23:23;0.88;;;0.88;;
60867;SDS011;46702;48.370;10.794;2022-11-20T16:25:53;1.50;;;1.40;;
60867;SDS011;46702;48.370;10.794;2022-11-20T16:28:30;1.70;;;1.60;;
60867;SDS011;46702;48.370;10.794;2022-11-20T16:31:11;1.13;;;1.13;;
60867;SDS011;46702;48.370;10.794;2022-11-20T16:33:59;1.55;;;1.45;;
60867;SDS011;46702;48.370;10.794;2022-11-20T16:39:52;3.03;;;1.55;;
60867;SDS011;46702;48.370;10.794;2022-11-20T16:42:29;1.23;;;1.08;;
60867;SDS011;46702;48.370;10.794;2022-11-20T16:47:58;0.90;;;0.90;;
60867;SDS011;46702;48.370;10.794;2022-11-20T16:50:32;2.30;;;2.10;;